NWWL

Details ICAO NWWL (LIF)
Name Wanaham_(Lifou)
Region New Caledonia
Timezone Pacific/Noumea (UTC+11.0)
Plans Departing 2
Arriving 4
Stats Elevation 92 ft / 28 m (AMSL)
Location -20.774911° 167.239647°
Runways 1
Magnetic Variation 12.157° E
Sunrise 2017-12-16 18:06:41 UTC / 2017-12-17 05:06:41 Local
Sunset 2017-12-17 07:29:57 UTC / 2017-12-17 18:29:57 Local
Advertisement - Login to hide

Runways

ID Width Length Bearing (true) Bearing (mag) Surface Threshold Offset Overrun Length
12 98 ft / 30 m 3,612 ft / 1,101 m 135.12° 122.96° Asphalt 0 ft / 0 m 164 ft / 50 m
30 98 ft / 30 m 3,612 ft / 1,101 m 315.12° 302.96° Asphalt 0 ft / 0 m 164 ft / 50 m

Map

Weather


0- 5 10 15 20 25 30 35+ Temperature / ° C

Clouds and Precipitation
Forecast for 2017-12-17 06:00 UTC. Updated 2 hours ago

Ground ~20,000 ft ~40,000 ft Winds

METAR

Not found

TAF

TAF NWWL 161700Z 1618/1718 11012G25KT 9999 SCT020 BKN040 BECMG 1708/1710 10010KT

Frequencies

Tower 118.50 MHz LIFOU TWR
Approach 125.10 MHz TONTOUTA APP
Warning: Do not use this data for real-world aviation or navigation. No guarantee of current accuracy is given.